Time;durP1;ratioP1;P1;durP2;ratioP2;P2;SDS_P1;SDS_P2;PMS_P1;PMS_P2;Temp;Humidity;BMP_temperature;BMP_pressure;BME280_temperature;BME280_humidity;BME280_pressure;Samples;Min_cycle;Max_cycle;Signal;HPM_P1;HPM_P2
2024/02/10 00:02:10;;;;;;;12.00;3.10;;;;;;;;;;4976324;28;20195;-79
2024/02/10 00:04:37;;;;;;;13.47;3.40;;;;;;;;;;4975814;28;20198;-78
2024/02/10 00:07:05;;;;;;;17.63;4.50;;;;;;;;;;4975786;28;20213;-78
2024/02/10 00:09:32;;;;;;;14.20;3.63;;;;;;;;;;4975682;28;20352;-77
2024/02/10 00:12:00;;;;;;;17.40;3.30;;;;;;;;;;4976103;28;20226;-79
2024/02/10 00:14:27;;;;;;;13.33;3.23;;;;;;;;;;4975175;28;20301;-79
2024/02/10 00:16:56;;;;;;;13.90;3.10;;;;;;;;;;4976182;28;20202;-79
2024/02/10 00:19:23;;;;;;;14.03;3.33;;;;;;;;;;4975863;28;20203;-79
2024/02/10 00:21:50;;;;;;;15.70;3.50;;;;;;;;;;4975741;28;20206;-79
2024/02/10 00:24:18;;;;;;;11.17;2.93;;;;;;;;;;4975241;28;20632;-78
2024/02/10 00:26:46;;;;;;;13.13;3.43;;;;;;;;;;4975696;28;20198;-78
2024/02/10 00:29:13;;;;;;;14.30;3.17;;;;;;;;;;4975264;28;20234;-79
2024/02/10 00:31:43;;;;;;;12.47;3.00;;;;;;;;;;4975641;28;20701;-79
2024/02/10 00:34:13;;;;;;;11.63;2.87;;;;;;;;;;4975738;28;20202;-78
2024/02/10 00:36:41;;;;;;;13.07;3.27;;;;;;;;;;4975107;28;20197;-79
2024/02/10 00:39:08;;;;;;;19.60;3.30;;;;;;;;;;4975232;28;20249;-79
2024/02/10 00:41:35;;;;;;;11.93;3.17;;;;;;;;;;4975684;28;20321;-79
2024/02/10 00:44:02;;;;;;;16.33;3.60;;;;;;;;;;4975070;28;20290;-78
2024/02/10 00:46:31;;;;;;;11.97;2.93;;;;;;;;;;4975288;28;20198;-78
2024/02/10 00:49:00;;;;;;;11.20;3.47;;;;;;;;;;4975435;28;20237;-78
2024/02/10 00:51:30;;;;;;;15.40;3.37;;;;;;;;;;4974518;28;20194;-79
2024/02/10 00:53:57;;;;;;;12.67;2.80;;;;;;;;;;4975080;28;20226;-78
2024/02/10 00:56:24;;;;;;;11.50;3.40;;;;;;;;;;4973987;28;20253;-77
2024/02/10 00:58:51;;;;;;;13.17;3.10;;;;;;;;;;4975026;28;20217;-78
2024/02/10 01:01:21;;;;;;;14.83;3.23;;;;;;;;;;4974860;28;20680;-79
2024/02/10 01:03:49;;;;;;;17.07;3.40;;;;;;;;;;4975207;28;20576;-77
2024/02/10 01:06:17;;;;;;;15.43;3.30;;;;;;;;;;4974672;28;20198;-77
2024/02/10 01:08:48;;;;;;;14.23;3.20;;;;;;;;;;4974674;28;20261;-78
2024/02/10 01:11:16;;;;;;;15.17;3.57;;;;;;;;;;4974521;28;20249;-77
2024/02/10 01:13:45;;;;;;;13.17;3.50;;;;;;;;;;4975224;28;20199;-78
2024/02/10 01:16:15;;;;;;;13.27;3.27;;;;;;;;;;4974450;28;20199;-79
2024/02/10 01:18:42;;;;;;;11.37;3.30;;;;;;;;;;4974407;28;20586;-78
2024/02/10 01:21:10;;;;;;;15.47;3.17;;;;;;;;;;4974179;28;20622;-78
2024/02/10 01:23:39;;;;;;;15.67;3.83;;;;;;;;;;4974473;28;20233;-76
2024/02/10 01:26:08;;;;;;;17.83;3.70;;;;;;;;;;4974858;28;20281;-78
2024/02/10 01:28:36;;;;;;;20.07;3.53;;;;;;;;;;4974175;28;20245;-78
2024/02/10 01:31:03;;;;;;;14.93;3.70;;;;;;;;;;4974223;28;20285;-79
2024/02/10 01:33:30;;;;;;;11.73;3.13;;;;;;;;;;4974282;28;20198;-76
2024/02/10 01:35:59;;;;;;;12.20;3.63;;;;;;;;;;4974226;28;20230;-79
2024/02/10 01:38:26;;;;;;;16.50;3.37;;;;;;;;;;4973967;28;20316;-78
2024/02/10 01:40:53;;;;;;;13.13;3.63;;;;;;;;;;4974573;28;20283;-79
2024/02/10 01:43:22;;;;;;;14.10;3.57;;;;;;;;;;4973853;28;20730;-79
2024/02/10 01:45:50;;;;;;;11.17;3.77;;;;;;;;;;4974043;28;20550;-78
2024/02/10 01:48:17;;;;;;;15.23;3.33;;;;;;;;;;4974035;28;20655;-77
2024/02/10 01:50:45;;;;;;;13.60;4.00;;;;;;;;;;4973705;28;20194;-80
2024/02/10 01:53:12;;;;;;;16.87;4.33;;;;;;;;;;4974066;28;20297;-78
2024/02/10 01:55:39;;;;;;;16.17;4.03;;;;;;;;;;4973727;28;20209;-77
2024/02/10 01:58:07;;;;;;;14.43;4.30;;;;;;;;;;4973876;28;20679;-79
2024/02/10 02:00:36;;;;;;;13.80;4.27;;;;;;;;;;4974255;28;20264;-78
2024/02/10 02:03:05;;;;;;;13.07;3.47;;;;;;;;;;4974049;28;20218;-78
2024/02/10 02:05:33;;;;;;;17.50;3.90;;;;;;;;;;4973594;28;20289;-79
2024/02/10 02:08:04;;;;;;;12.63;4.00;;;;;;;;;;4973238;28;20206;-79
2024/02/10 02:10:31;;;;;;;12.67;4.00;;;;;;;;;;4973624;28;20230;-78
2024/02/10 02:12:58;;;;;;;12.47;3.70;;;;;;;;;;4990084;28;20253;-78
2024/02/10 02:15:27;;;;;;;13.13;3.80;;;;;;;;;;4993186;28;20202;-79
2024/02/10 02:17:56;;;;;;;18.70;4.23;;;;;;;;;;4993099;28;20197;-78
2024/02/10 02:20:23;;;;;;;19.83;4.20;;;;;;;;;;4993006;28;20284;-78
2024/02/10 02:22:52;;;;;;;15.63;4.07;;;;;;;;;;4992912;28;20221;-79
2024/02/10 02:25:20;;;;;;;15.93;4.30;;;;;;;;;;4992618;28;20208;-78
2024/02/10 02:27:47;;;;;;;13.37;4.50;;;;;;;;;;4992620;28;20240;-78
2024/02/10 02:30:14;;;;;;;11.50;4.03;;;;;;;;;;4992453;28;20236;-78
2024/02/10 02:32:42;;;;;;;12.87;3.97;;;;;;;;;;4992493;28;20324;-79
2024/02/10 02:35:10;;;;;;;14.07;4.43;;;;;;;;;;4992878;28;20277;-78
2024/02/10 02:37:40;;;;;;;15.00;4.63;;;;;;;;;;4981695;28;20209;-78
2024/02/10 02:40:10;;;;;;;15.87;4.30;;;;;;;;;;4972987;28;20206;-79
2024/02/10 02:42:37;;;;;;;16.20;4.33;;;;;;;;;;4972745;28;20222;-79
2024/02/10 02:45:05;;;;;;;14.20;4.13;;;;;;;;;;4973394;28;20281;-78
2024/02/10 02:47:34;;;;;;;13.73;4.43;;;;;;;;;;4972462;28;20229;-79
2024/02/10 02:50:01;;;;;;;16.70;5.00;;;;;;;;;;4973110;28;20234;-78
2024/02/10 02:52:30;;;;;;;13.50;4.30;;;;;;;;;;4972977;28;20198;-78
2024/02/10 02:54:59;;;;;;;14.40;4.50;;;;;;;;;;4973436;28;20208;-78
2024/02/10 02:57:33;;;;;;;10.90;4.83;;;;;;;;;;4972784;28;20198;-78
2024/02/10 03:00:01;;;;;;;12.73;4.50;;;;;;;;;;4972993;28;20201;-79
2024/02/10 03:02:30;;;;;;;12.40;4.43;;;;;;;;;;4972237;28;20220;-79
2024/02/10 03:04:57;;;;;;;13.73;4.90;;;;;;;;;;4972755;28;20261;-78
2024/02/10 03:07:30;;;;;;;16.33;4.90;;;;;;;;;;4972690;28;20661;-77
2024/02/10 03:09:57;;;;;;;16.50;4.93;;;;;;;;;;4973255;28;20327;-79
2024/02/10 03:12:24;;;;;;;15.10;4.37;;;;;;;;;;4972754;28;20194;-77
2024/02/10 03:14:54;;;;;;;11.57;4.07;;;;;;;;;;4972591;28;20732;-78
2024/02/10 03:17:21;;;;;;;15.40;4.03;;;;;;;;;;4959235;28;20567;-79
2024/02/10 03:19:49;;;;;;;10.87;3.80;;;;;;;;;;4953280;29;20282;-76
2024/02/10 03:22:17;;;;;;;11.40;4.10;;;;;;;;;;4953506;28;20199;-78
2024/02/10 03:24:47;;;;;;;10.13;3.97;;;;;;;;;;4953558;28;20287;-78
2024/02/10 03:27:15;;;;;;;13.80;4.37;;;;;;;;;;4953016;29;20199;-78
2024/02/10 03:29:42;;;;;;;10.17;4.10;;;;;;;;;;4953198;29;20298;-78
2024/02/10 03:32:10;;;;;;;11.77;3.43;;;;;;;;;;4953249;29;20282;-78
2024/02/10 03:34:37;;;;;;;10.50;3.67;;;;;;;;;;4953321;29;20305;-79
2024/02/10 03:37:05;;;;;;;12.40;3.87;;;;;;;;;;4959166;28;20668;-78
2024/02/10 03:39:32;;;;;;;14.97;3.97;;;;;;;;;;4971855;28;20198;-78
2024/02/10 03:42:00;;;;;;;13.83;4.17;;;;;;;;;;4972632;28;20320;-78
2024/02/10 03:44:27;;;;;;;13.00;3.97;;;;;;;;;;4972485;28;20770;-78
2024/02/10 03:46:55;;;;;;;13.63;4.33;;;;;;;;;;4971952;28;20245;-78
2024/02/10 03:49:23;;;;;;;13.23;4.27;;;;;;;;;;4971978;28;20262;-77
2024/02/10 03:51:51;;;;;;;15.07;4.00;;;;;;;;;;4972715;28;20228;-79
2024/02/10 03:54:18;;;;;;;16.00;4.57;;;;;;;;;;4972095;28;20229;-78
2024/02/10 03:56:47;;;;;;;13.57;4.23;;;;;;;;;;4964787;28;20199;-79
2024/02/10 03:59:15;;;;;;;16.70;4.63;;;;;;;;;;4954099;28;20211;-78
2024/02/10 04:01:43;;;;;;;19.50;4.40;;;;;;;;;;4952626;29;20223;-79
2024/02/10 04:04:11;;;;;;;18.77;4.80;;;;;;;;;;4953720;29;20199;-78
2024/02/10 04:06:40;;;;;;;15.13;4.57;;;;;;;;;;4953358;29;20227;-78
2024/02/10 04:09:07;;;;;;;12.93;4.60;;;;;;;;;;4952650;29;20199;-78
2024/02/10 04:11:35;;;;;;;11.43;4.07;;;;;;;;;;4952728;29;20207;-79
2024/02/10 04:14:02;;;;;;;16.17;4.67;;;;;;;;;;4952424;29;20649;-78
2024/02/10 04:16:29;;;;;;;21.40;4.83;;;;;;;;;;4953047;29;20199;-78
2024/02/10 04:18:59;;;;;;;14.90;4.80;;;;;;;;;;4952289;29;20731;-78
2024/02/10 04:21:27;;;;;;;11.83;4.23;;;;;;;;;;4952801;29;20199;-79
2024/02/10 04:23:58;;;;;;;13.37;4.67;;;;;;;;;;4957808;28;20198;-78
2024/02/10 04:26:25;;;;;;;15.77;5.30;;;;;;;;;;4971941;28;20199;-78
2024/02/10 04:28:52;;;;;;;10.50;4.40;;;;;;;;;;4971553;28;20226;-78
2024/02/10 04:31:21;;;;;;;10.63;3.70;;;;;;;;;;4975141;28;20405;-79
2024/02/10 04:33:50;;;;;;;8.60;3.30;;;;;;;;;;4975285;28;20689;-78
2024/02/10 04:36:17;;;;;;;7.77;3.00;;;;;;;;;;4975470;28;20629;-78
2024/02/10 04:38:44;;;;;;;7.50;2.63;;;;;;;;;;4974776;28;20199;-79
2024/02/10 04:41:13;;;;;;;2.63;1.20;;;;;;;;;;4975238;28;20256;-75
2024/02/10 04:43:40;;;;;;;3.00;0.77;;;;;;;;;;4975027;28;20285;-79
2024/02/10 04:46:08;;;;;;;6.20;1.00;;;;;;;;;;4975369;28;20220;-77
2024/02/10 04:48:36;;;;;;;6.30;0.97;;;;;;;;;;4974944;28;20198;-77
2024/02/10 04:51:03;;;;;;;2.80;0.60;;;;;;;;;;4975230;28;20702;-78
2024/02/10 04:53:31;;;;;;;5.67;0.80;;;;;;;;;;4975527;28;20261;-78
2024/02/10 04:55:58;;;;;;;4.20;0.87;;;;;;;;;;4975110;28;20237;-79
2024/02/10 04:58:26;;;;;;;5.40;1.00;;;;;;;;;;4974814;28;20285;-78
2024/02/10 05:00:53;;;;;;;4.20;0.90;;;;;;;;;;4974874;28;20202;-77
2024/02/10 05:03:21;;;;;;;5.90;0.80;;;;;;;;;;4974805;28;20290;-78
2024/02/10 05:05:48;;;;;;;10.23;0.97;;;;;;;;;;4975246;28;20203;-78
2024/02/10 05:08:15;;;;;;;4.57;0.90;;;;;;;;;;4974818;28;20203;-78
2024/02/10 05:10:42;;;;;;;6.77;1.10;;;;;;;;;;4974397;28;20635;-77
2024/02/10 05:13:09;;;;;;;4.17;1.00;;;;;;;;;;4974490;28;20902;-78
2024/02/10 05:15:38;;;;;;;5.00;1.20;;;;;;;;;;4975245;28;20202;-78
2024/02/10 05:18:08;;;;;;;7.63;1.27;;;;;;;;;;4974617;28;20286;-77
2024/02/10 05:20:36;;;;;;;6.93;1.57;;;;;;;;;;4974813;28;20293;-78
2024/02/10 05:23:03;;;;;;;8.43;1.43;;;;;;;;;;4974420;28;20198;-78
2024/02/10 05:25:34;;;;;;;6.57;1.20;;;;;;;;;;4974501;28;20293;-79
2024/02/10 05:28:02;;;;;;;8.23;0.97;;;;;;;;;;4973996;28;20210;-78
2024/02/10 05:30:29;;;;;;;3.60;0.93;;;;;;;;;;4974704;28;20677;-78
2024/02/10 05:33:01;;;;;;;7.60;1.10;;;;;;;;;;4974886;28;20202;-77
2024/02/10 05:35:29;;;;;;;10.57;1.30;;;;;;;;;;4974428;28;20667;-78
2024/02/10 05:37:57;;;;;;;5.03;1.00;;;;;;;;;;4974368;28;20230;-78
2024/02/10 05:40:25;;;;;;;5.80;1.00;;;;;;;;;;4973982;28;20230;-78
2024/02/10 05:42:52;;;;;;;8.33;1.20;;;;;;;;;;4973454;28;20233;-77
2024/02/10 05:45:20;;;;;;;9.00;1.30;;;;;;;;;;4966347;28;20211;-78
2024/02/10 05:47:50;;;;;;;5.93;1.30;;;;;;;;;;4956009;28;20294;-78
2024/02/10 05:50:19;;;;;;;5.97;0.93;;;;;;;;;;4974064;28;20281;-77
2024/02/10 05:52:47;;;;;;;8.67;1.57;;;;;;;;;;4957894;28;20294;-78
2024/02/10 05:55:20;;;;;;;6.10;0.90;;;;;;;;;;4954538;29;20227;-77
2024/02/10 05:57:48;;;;;;;10.03;1.43;;;;;;;;;;4954333;29;20199;-77
2024/02/10 06:00:15;;;;;;;8.37;1.03;;;;;;;;;;4954601;29;21060;-78
2024/02/10 06:02:43;;;;;;;7.60;0.90;;;;;;;;;;4954617;29;20294;-78
2024/02/10 06:05:09;;;;;;;8.80;1.10;;;;;;;;;;4954427;29;20223;-78
2024/02/10 06:07:38;;;;;;;5.70;1.00;;;;;;;;;;4954680;29;20215;-78
2024/02/10 06:10:09;;;;;;;6.93;1.23;;;;;;;;;;4954071;29;20326;-78
2024/02/10 06:12:37;;;;;;;6.00;1.03;;;;;;;;;;4954807;29;20203;-77
2024/02/10 06:15:06;;;;;;;8.30;1.00;;;;;;;;;;4954260;29;20783;-78
2024/02/10 06:17:34;;;;;;;11.50;1.20;;;;;;;;;;4954230;29;20207;-78
2024/02/10 06:20:02;;;;;;;6.00;1.20;;;;;;;;;;4954103;29;20724;-77
2024/02/10 06:22:29;;;;;;;4.37;1.10;;;;;;;;;;4954323;29;20199;-78
2024/02/10 06:24:58;;;;;;;8.20;1.07;;;;;;;;;;4953946;29;20238;-77
2024/02/10 06:27:25;;;;;;;7.50;1.20;;;;;;;;;;4954180;29;20231;-78
2024/02/10 06:29:54;;;;;;;7.03;1.30;;;;;;;;;;4953689;29;20270;-78
2024/02/10 06:32:21;;;;;;;5.27;0.90;;;;;;;;;;4954134;29;20329;-77
2024/02/10 06:34:51;;;;;;;5.10;1.03;;;;;;;;;;4953905;29;20573;-79
2024/02/10 06:37:19;;;;;;;5.67;1.00;;;;;;;;;;4962585;28;20210;-78
2024/02/10 06:39:47;;;;;;;6.87;1.43;;;;;;;;;;4964707;28;20229;-78
2024/02/10 06:42:15;;;;;;;13.10;2.40;;;;;;;;;;4961497;28;20328;-78
2024/02/10 06:44:42;;;;;;;7.37;2.20;;;;;;;;;;4973137;28;20230;-78
2024/02/10 06:47:09;;;;;;;8.30;2.40;;;;;;;;;;4973049;28;20680;-78
2024/02/10 06:49:37;;;;;;;7.37;2.33;;;;;;;;;;4973097;28;20202;-78
2024/02/10 06:52:05;;;;;;;10.50;3.10;;;;;;;;;;4972609;28;20293;-78
2024/02/10 06:54:32;;;;;;;11.27;2.83;;;;;;;;;;4972160;28;20327;-77
2024/02/10 06:57:01;;;;;;;9.90;2.27;;;;;;;;;;4972987;28;20206;-77
2024/02/10 06:59:31;;;;;;;8.00;2.37;;;;;;;;;;4972940;28;20194;-78
2024/02/10 07:01:58;;;;;;;8.70;2.10;;;;;;;;;;4973405;28;20293;-76
2024/02/10 07:04:26;;;;;;;9.20;2.33;;;;;;;;;;4972454;28;20294;-78
2024/02/10 07:06:53;;;;;;;9.33;2.10;;;;;;;;;;4972715;28;20194;-78
2024/02/10 07:09:22;;;;;;;11.53;2.73;;;;;;;;;;4970727;28;20229;-81
2024/02/10 07:11:49;;;;;;;7.13;2.70;;;;;;;;;;4972986;28;20713;-80
2024/02/10 07:14:18;;;;;;;11.10;2.70;;;;;;;;;;4973092;28;20198;-80
2024/02/10 07:16:46;;;;;;;5.40;2.63;;;;;;;;;;4972958;28;20194;-80
2024/02/10 07:19:15;;;;;;;8.23;1.93;;;;;;;;;;4972487;28;20428;-80
2024/02/10 07:21:45;;;;;;;10.60;2.47;;;;;;;;;;4972964;28;20230;-80
2024/02/10 07:24:13;;;;;;;10.33;2.10;;;;;;;;;;4972446;28;20668;-80
2024/02/10 07:26:42;;;;;;;9.60;2.37;;;;;;;;;;4972820;28;20229;-81
2024/02/10 07:29:11;;;;;;;10.87;2.07;;;;;;;;;;4972776;28;20205;-80
2024/02/10 07:31:39;;;;;;;8.60;1.80;;;;;;;;;;4972467;28;20234;-79
2024/02/10 07:34:08;;;;;;;7.93;1.97;;;;;;;;;;4972589;28;20671;-80
2024/02/10 07:36:37;;;;;;;7.73;2.60;;;;;;;;;;4972685;28;20233;-81
2024/02/10 07:39:07;;;;;;;10.57;2.80;;;;;;;;;;4972309;28;20289;-79
2024/02/10 07:41:38;;;;;;;8.77;3.20;;;;;;;;;;4972550;28;20647;-81
2024/02/10 07:44:07;;;;;;;10.47;3.80;;;;;;;;;;4972526;28;20241;-81
2024/02/10 07:46:34;;;;;;;9.87;2.90;;;;;;;;;;4972647;28;20265;-81
2024/02/10 07:49:06;;;;;;;7.90;3.17;;;;;;;;;;4972341;28;20623;-80
2024/02/10 07:51:35;;;;;;;8.93;2.50;;;;;;;;;;4972139;28;20226;-80
2024/02/10 07:54:02;;;;;;;9.90;2.57;;;;;;;;;;4972490;28;20297;-81
2024/02/10 07:56:30;;;;;;;10.03;2.33;;;;;;;;;;4972776;28;20663;-80
2024/02/10 07:58:58;;;;;;;7.87;2.07;;;;;;;;;;4972128;28;20221;-81
2024/02/10 08:01:26;;;;;;;12.27;2.50;;;;;;;;;;4971170;28;20202;-80
2024/02/10 08:03:54;;;;;;;8.80;2.03;;;;;;;;;;4953531;28;20223;-80
2024/02/10 08:06:26;;;;;;;10.10;2.03;;;;;;;;;;4956432;29;20203;-81
2024/02/10 08:08:57;;;;;;;13.03;2.77;;;;;;;;;;4957355;29;20250;-80
2024/02/10 08:11:27;;;;;;;9.73;1.97;;;;;;;;;;4956830;29;20707;-80
2024/02/10 08:13:54;;;;;;;14.97;1.87;;;;;;;;;;4956926;29;20611;-81
2024/02/10 08:16:27;;;;;;;10.13;2.10;;;;;;;;;;4957024;29;20668;-81
2024/02/10 08:18:54;;;;;;;13.13;1.87;;;;;;;;;;4956926;29;20642;-80
2024/02/10 08:21:22;;;;;;;7.17;1.70;;;;;;;;;;4956381;29;20281;-81
2024/02/10 08:23:52;;;;;;;7.43;1.90;;;;;;;;;;4956690;29;20732;-81
2024/02/10 08:26:20;;;;;;;10.67;2.53;;;;;;;;;;4956461;28;20890;-81
2024/02/10 08:28:50;;;;;;;12.70;3.63;;;;;;;;;;4956426;29;20297;-81
2024/02/10 08:31:18;;;;;;;12.23;4.07;;;;;;;;;;4956080;29;20226;-80
2024/02/10 08:33:47;;;;;;;9.63;2.73;;;;;;;;;;4956623;29;20207;-81
2024/02/10 08:36:16;;;;;;;8.77;2.20;;;;;;;;;;4956135;29;20203;-80
2024/02/10 08:38:43;;;;;;;13.13;2.47;;;;;;;;;;4956216;29;20199;-80
2024/02/10 08:41:11;;;;;;;12.77;2.80;;;;;;;;;;4956198;29;20647;-81
2024/02/10 08:43:47;;;;;;;11.27;3.00;;;;;;;;;;4956411;29;20227;-81
2024/02/10 08:46:14;;;;;;;11.50;3.13;;;;;;;;;;4956352;29;20230;-80
2024/02/10 08:48:42;;;;;;;16.57;3.27;;;;;;;;;;4956121;29;20199;-81
2024/02/10 08:51:12;;;;;;;8.27;2.47;;;;;;;;;;4977238;28;20285;-81
2024/02/10 08:53:40;;;;;;;10.27;2.80;;;;;;;;;;4988704;28;20208;-81
2024/02/10 08:56:08;;;;;;;13.07;3.20;;;;;;;;;;4994635;28;20225;-81
2024/02/10 08:58:36;;;;;;;9.27;3.37;;;;;;;;;;4979620;28;20278;-80
2024/02/10 09:01:06;;;;;;;13.27;3.03;;;;;;;;;;4973454;28;20289;-81
2024/02/10 09:03:33;;;;;;;15.73;3.50;;;;;;;;;;4974979;28;20206;-81
2024/02/10 09:06:00;;;;;;;12.00;2.93;;;;;;;;;;4974412;28;20687;-81
2024/02/10 09:08:28;;;;;;;13.10;2.87;;;;;;;;;;4967099;28;20704;-81
2024/02/10 09:10:55;;;;;;;9.30;2.60;;;;;;;;;;4958174;28;20313;-81
2024/02/10 09:13:22;;;;;;;8.60;2.47;;;;;;;;;;4974807;28;20198;-80
2024/02/10 09:15:49;;;;;;;8.93;2.53;;;;;;;;;;4974025;28;20195;-81
2024/02/10 09:18:18;;;;;;;8.73;2.53;;;;;;;;;;4979727;28;20249;-80
2024/02/10 09:20:45;;;;;;;12.53;2.70;;;;;;;;;;4966275;28;20734;-80
2024/02/10 09:23:12;;;;;;;11.43;2.30;;;;;;;;;;4957594;28;20265;-80
2024/02/10 09:25:42;;;;;;;11.00;2.67;;;;;;;;;;4955458;29;20206;-80
2024/02/10 09:28:09;;;;;;;10.13;2.80;;;;;;;;;;4972815;28;20237;-81
2024/02/10 09:30:36;;;;;;;9.93;2.43;;;;;;;;;;4974823;28;20233;-81
2024/02/10 09:33:04;;;;;;;9.43;2.67;;;;;;;;;;4974164;28;20285;-81
2024/02/10 09:35:39;;;;;;;11.73;2.23;;;;;;;;;;4974682;28;20301;-81
2024/02/10 09:38:12;;;;;;;14.70;2.40;;;;;;;;;;4974691;28;20210;-81
2024/02/10 09:40:40;;;;;;;13.70;2.47;;;;;;;;;;4962465;28;20684;-80
2024/02/10 09:43:09;;;;;;;9.03;2.30;;;;;;;;;;4954842;28;20245;-80
2024/02/10 09:45:41;;;;;;;12.43;2.37;;;;;;;;;;4954923;29;20688;-81
2024/02/10 09:48:09;;;;;;;10.17;2.17;;;;;;;;;;4955477;29;20223;-82
2024/02/10 09:50:38;;;;;;;12.17;2.53;;;;;;;;;;4954863;29;20668;-82
2024/02/10 09:53:06;;;;;;;10.80;2.30;;;;;;;;;;4954899;29;20636;-80
2024/02/10 09:55:33;;;;;;;9.70;1.90;;;;;;;;;;4955192;28;20278;-80
2024/02/10 09:58:04;;;;;;;10.80;2.03;;;;;;;;;;4954995;29;20258;-80
2024/02/10 10:00:32;;;;;;;10.90;2.70;;;;;;;;;;4954885;29;20203;-81
2024/02/10 10:03:00;;;;;;;13.47;2.37;;;;;;;;;;4954319;29;20229;-81
2024/02/10 10:05:29;;;;;;;10.47;2.30;;;;;;;;;;4955000;28;20199;-80
2024/02/10 10:08:00;;;;;;;10.67;1.80;;;;;;;;;;4954805;29;20732;-80
2024/02/10 10:10:27;;;;;;;11.07;2.40;;;;;;;;;;4954863;29;20293;-80
2024/02/10 10:12:54;;;;;;;9.77;2.70;;;;;;;;;;4954572;29;20641;-81
2024/02/10 10:15:21;;;;;;;11.97;2.90;;;;;;;;;;4954850;29;20258;-81
2024/02/10 10:17:49;;;;;;;10.37;2.10;;;;;;;;;;4953997;29;20249;-81
2024/02/10 10:20:20;;;;;;;10.23;2.23;;;;;;;;;;4955107;29;20199;-81
2024/02/10 10:22:50;;;;;;;8.03;2.63;;;;;;;;;;4954669;29;20241;-81
2024/02/10 10:25:19;;;;;;;9.57;2.47;;;;;;;;;;4954158;28;20250;-79
2024/02/10 10:27:46;;;;;;;11.27;2.50;;;;;;;;;;4953685;28;20234;-80
2024/02/10 10:30:16;;;;;;;10.13;2.30;;;;;;;;;;4970063;28;20202;-80
2024/02/10 10:32:43;;;;;;;11.80;2.30;;;;;;;;;;4973169;28;20236;-80
2024/02/10 10:35:11;;;;;;;20.20;2.70;;;;;;;;;;4973558;28;20577;-80
2024/02/10 10:37:38;;;;;;;10.40;2.53;;;;;;;;;;4973563;28;20237;-80
2024/02/10 10:40:07;;;;;;;13.40;2.83;;;;;;;;;;4970633;28;20237;-79
2024/02/10 10:42:37;;;;;;;11.00;2.65;;;;;;;;;;4966370;28;20277;-80
2024/02/10 10:45:05;;;;;;;12.30;2.30;;;;;;;;;;4972887;28;20289;-81
2024/02/10 10:47:34;;;;;;;14.60;2.88;;;;;;;;;;4972918;28;20841;-80
2024/02/10 10:50:01;;;;;;;14.27;2.80;;;;;;;;;;4972991;28;20202;-81
2024/02/10 10:52:30;;;;;;;11.65;2.08;;;;;;;;;;4972722;28;20330;-80
2024/02/10 10:54:58;;;;;;;14.95;4.00;;;;;;;;;;4973317;28;20290;-80
2024/02/10 10:57:26;;;;;;;19.63;3.63;;;;;;;;;;4973011;28;20668;-80
2024/02/10 10:59:58;;;;;;;15.25;3.08;;;;;;;;;;4972834;28;20265;-79
2024/02/10 11:02:28;;;;;;;11.32;2.50;;;;;;;;;;4972995;28;20234;-77
2024/02/10 11:05:03;;;;;;;19.15;3.20;;;;;;;;;;4973387;28;20290;-80
2024/02/10 11:07:33;;;;;;;15.73;2.80;;;;;;;;;;4972901;28;20198;-78
2024/02/10 11:10:00;;;;;;;10.95;3.00;;;;;;;;;;4973054;28;20297;-78
2024/02/10 11:12:32;;;;;;;13.73;3.03;;;;;;;;;;4972992;28;20320;-80
2024/02/10 11:15:00;;;;;;;16.20;3.05;;;;;;;;;;4972812;28;20281;-80
2024/02/10 11:17:29;;;;;;;18.85;3.42;;;;;;;;;;4972672;28;20199;-80
2024/02/10 11:20:00;;;;;;;15.75;3.03;;;;;;;;;;4972947;28;20256;-80
2024/02/10 11:22:30;;;;;;;14.55;2.92;;;;;;;;;;4972765;28;20241;-79
2024/02/10 11:25:00;;;;;;;17.42;3.78;;;;;;;;;;4973062;28;20718;-79
2024/02/10 11:27:27;;;;;;;12.63;3.40;;;;;;;;;;4972716;28;20225;-80
2024/02/10 11:29:58;;;;;;;11.88;3.30;;;;;;;;;;4972579;28;20281;-80
2024/02/10 11:32:27;;;;;;;14.57;3.38;;;;;;;;;;4972149;28;20285;-80
2024/02/10 11:34:54;;;;;;;13.50;3.55;;;;;;;;;;4972522;28;20289;-80
2024/02/10 11:37:25;;;;;;;19.00;3.97;;;;;;;;;;4972496;28;20679;-78
2024/02/10 11:39:53;;;;;;;17.38;3.45;;;;;;;;;;4972016;28;20577;-80
2024/02/10 11:42:23;;;;;;;16.75;3.92;;;;;;;;;;4972749;28;20230;-80
2024/02/10 11:44:50;;;;;;;16.25;3.80;;;;;;;;;;4972188;28;20201;-79
2024/02/10 11:47:18;;;;;;;17.23;4.70;;;;;;;;;;4972357;28;20198;-78
2024/02/10 11:49:46;;;;;;;16.65;4.22;;;;;;;;;;4972160;28;20290;-80
2024/02/10 11:52:14;;;;;;;16.98;4.55;;;;;;;;;;4972348;28;20226;-80
2024/02/10 11:54:41;;;;;;;14.68;4.20;;;;;;;;;;4972486;28;20285;-78
2024/02/10 11:57:08;;;;;;;17.05;4.47;;;;;;;;;;4972373;28;20249;-80
2024/02/10 11:59:36;;;;;;;15.23;4.45;;;;;;;;;;4972282;28;20198;-79
2024/02/10 12:02:03;;;;;;;18.75;5.00;;;;;;;;;;4972304;28;20214;-81
2024/02/10 12:04:32;;;;;;;14.68;4.35;;;;;;;;;;4972020;28;20202;-80
2024/02/10 12:07:00;;;;;;;16.73;4.60;;;;;;;;;;4972696;28;20664;-81
2024/02/10 12:09:29;;;;;;;18.83;5.20;;;;;;;;;;4972485;28;20237;-79
2024/02/10 12:11:59;;;;;;;17.33;5.47;;;;;;;;;;4972254;28;20320;-81
2024/02/10 12:14:27;;;;;;;18.50;5.50;;;;;;;;;;4971911;28;20590;-79
2024/02/10 12:16:59;;;;;;;19.88;5.85;;;;;;;;;;4972614;28;20285;-80
2024/02/10 12:19:28;;;;;;;16.00;5.15;;;;;;;;;;4972240;28;20334;-80
2024/02/10 12:21:57;;;;;;;17.40;5.18;;;;;;;;;;4972221;28;20202;-80
2024/02/10 12:24:28;;;;;;;14.60;5.70;;;;;;;;;;4972266;28;20579;-80
2024/02/10 12:26:55;;;;;;;14.27;5.70;;;;;;;;;;4971975;28;20223;-79
2024/02/10 12:29:22;;;;;;;19.27;5.40;;;;;;;;;;4972276;28;20644;-80
2024/02/10 12:31:51;;;;;;;16.40;5.55;;;;;;;;;;4972057;28;20226;-81
2024/02/10 12:34:18;;;;;;;17.27;5.65;;;;;;;;;;4971974;28;20201;-80
2024/02/10 12:36:45;;;;;;;19.20;5.97;;;;;;;;;;4972048;28;20207;-81
2024/02/10 12:39:15;;;;;;;20.73;6.68;;;;;;;;;;4967160;28;20636;-79
2024/02/10 12:41:44;;;;;;;15.80;5.45;;;;;;;;;;4960322;28;20665;-79
2024/02/10 12:44:11;;;;;;;18.95;6.00;;;;;;;;;;4966014;28;20218;-79
2024/02/10 12:46:39;;;;;;;16.77;5.95;;;;;;;;;;4971596;28;20207;-78
2024/02/10 12:49:08;;;;;;;16.40;5.72;;;;;;;;;;4971819;28;20660;-78
2024/02/10 12:51:35;;;;;;;19.10;6.68;;;;;;;;;;4973425;28;20203;-80
2024/02/10 12:54:02;;;;;;;17.38;6.70;;;;;;;;;;4975118;28;20285;-79
2024/02/10 12:56:30;;;;;;;15.98;6.55;;;;;;;;;;4974959;28;20253;-80
2024/02/10 12:58:58;;;;;;;12.70;6.35;;;;;;;;;;4975375;28;20281;-79
2024/02/10 13:01:30;;;;;;;16.45;6.50;;;;;;;;;;4975008;28;20205;-79
2024/02/10 13:04:02;;;;;;;11.75;6.28;;;;;;;;;;4975093;28;20202;-79
2024/02/10 13:06:30;;;;;;;17.30;6.57;;;;;;;;;;4975065;28;20214;-79
2024/02/10 13:08:58;;;;;;;13.77;6.47;;;;;;;;;;4973577;28;20228;-80
2024/02/10 13:11:25;;;;;;;13.32;6.15;;;;;;;;;;4981626;28;20234;-79
2024/02/10 13:13:52;;;;;;;16.60;5.75;;;;;;;;;;4977863;28;20325;-79
2024/02/10 13:16:21;;;;;;;13.75;6.15;;;;;;;;;;4989300;28;20205;-79
2024/02/10 13:18:48;;;;;;;16.35;6.63;;;;;;;;;;4978882;28;20293;-78
2024/02/10 13:21:16;;;;;;;16.17;7.10;;;;;;;;;;4974935;28;20199;-79
2024/02/10 13:23:43;;;;;;;15.82;6.50;;;;;;;;;;4974989;28;20198;-80
2024/02/10 13:26:12;;;;;;;17.65;6.45;;;;;;;;;;4974312;28;20254;-79
2024/02/10 13:28:42;;;;;;;18.67;6.75;;;;;;;;;;4974657;28;20292;-79
2024/02/10 13:31:09;;;;;;;18.00;6.63;;;;;;;;;;4974764;28;20217;-79
2024/02/10 13:33:39;;;;;;;15.15;6.28;;;;;;;;;;4975029;28;20276;-78
2024/02/10 13:36:08;;;;;;;14.00;6.18;;;;;;;;;;4974174;28;20207;-80
2024/02/10 14:00:36;;;;;;;18.60;7.57;;;;;;;;;;4974096;28;20649;-78
2024/02/10 14:03:04;;;;;;;15.57;6.70;;;;;;;;;;4973731;28;20257;-79
2024/02/10 14:05:48;;;;;;;16.10;6.30;;;;;;;;;;4974200;28;20254;-78
2024/02/10 14:08:36;;;;;;;15.85;6.43;;;;;;;;;;4974118;28;20226;-79
2024/02/10 14:11:07;;;;;;;15.70;6.47;;;;;;;;;;4973974;28;20269;-79
2024/02/10 14:13:39;;;;;;;13.10;6.35;;;;;;;;;;4973657;28;20659;-78
2024/02/10 14:16:09;;;;;;;19.88;6.80;;;;;;;;;;4974526;28;20195;-80
2024/02/10 14:18:41;;;;;;;16.60;6.78;;;;;;;;;;4973465;28;20203;-80
2024/02/10 14:21:17;;;;;;;11.68;5.95;;;;;;;;;;4973994;28;20571;-80
2024/02/10 14:23:45;;;;;;;17.95;6.25;;;;;;;;;;4953763;29;20680;-79
2024/02/10 14:26:15;;;;;;;17.15;5.93;;;;;;;;;;4954469;29;20238;-81
2024/02/10 14:28:52;;;;;;;13.65;5.35;;;;;;;;;;4954545;29;20205;-80
2024/02/10 14:31:21;;;;;;;12.93;5.40;;;;;;;;;;4954454;29;20203;-80
2024/02/10 14:33:49;;;;;;;11.60;5.07;;;;;;;;;;4953974;29;20781;-80
2024/02/10 14:36:37;;;;;;;18.00;5.85;;;;;;;;;;4954366;29;20203;-80
2024/02/10 14:39:08;;;;;;;12.75;5.43;;;;;;;;;;4954411;29;20222;-80
2024/02/10 14:41:38;;;;;;;14.27;4.97;;;;;;;;;;4953939;29;20238;-80
2024/02/10 14:44:06;;;;;;;12.90;4.32;;;;;;;;;;4954128;29;20265;-80
2024/02/10 14:46:34;;;;;;;10.73;3.93;;;;;;;;;;4953869;29;20199;-80
2024/02/10 14:49:02;;;;;;;10.47;3.60;;;;;;;;;;4954331;29;20297;-80
2024/02/10 14:51:31;;;;;;;8.57;4.17;;;;;;;;;;4954280;29;20203;-81
2024/02/10 14:53:59;;;;;;;14.07;4.40;;;;;;;;;;4953716;29;20350;-80
2024/02/10 14:56:31;;;;;;;14.00;3.97;;;;;;;;;;4953963;29;20203;-79
2024/02/10 14:58:59;;;;;;;8.60;3.60;;;;;;;;;;4954177;29;20210;-80
2024/02/10 15:01:34;;;;;;;11.60;3.70;;;;;;;;;;4953860;29;20290;-80
2024/02/10 15:04:03;;;;;;;9.53;2.70;;;;;;;;;;4953827;29;20213;-80